createdAt,value
2017-06-04T00:00:31.902Z,20.02
2017-06-04T00:01:12.487Z,20.03
2017-06-04T00:01:53.072Z,20.07
2017-06-04T00:02:33.657Z,20.03
2017-06-04T00:03:14.243Z,20
2017-06-04T00:03:54.825Z,20.07
2017-06-04T00:04:35.405Z,20.04
2017-06-04T00:05:15.992Z,20.02
2017-06-04T00:05:56.585Z,19.95
2017-06-04T00:06:37.174Z,20.03
2017-06-04T00:07:17.766Z,19.92
2017-06-04T00:07:58.348Z,19.96
2017-06-04T00:08:38.939Z,20.02
2017-06-04T00:09:19.532Z,20.11
2017-06-04T00:10:00.123Z,20.04
2017-06-04T00:10:40.714Z,19.96
2017-06-04T00:11:21.328Z,19.99
2017-06-04T00:12:01.923Z,19.94
2017-06-04T00:12:42.507Z,19.96
2017-06-04T00:13:23.105Z,19.99
2017-06-04T00:14:03.689Z,19.96
2017-06-04T00:14:44.284Z,20
2017-06-04T00:15:24.897Z,20
2017-06-04T00:16:05.496Z,20.03
2017-06-04T00:16:46.089Z,20.02
2017-06-04T00:17:26.746Z,19.94
2017-06-04T00:18:07.334Z,19.94
2017-06-04T00:18:47.924Z,19.91
2017-06-04T00:19:28.503Z,20
2017-06-04T00:20:09.097Z,19.92
2017-06-04T00:20:49.679Z,19.96
2017-06-04T00:21:30.269Z,19.85
2017-06-04T00:22:10.853Z,19.91
2017-06-04T00:22:51.438Z,19.94
2017-06-04T00:23:32.032Z,19.95
2017-06-04T00:24:12.637Z,19.92
2017-06-04T00:24:53.309Z,19.89
2017-06-04T00:25:33.959Z,19.89
2017-06-04T00:26:14.581Z,19.95
2017-06-04T00:26:55.166Z,19.88
2017-06-04T00:27:35.757Z,19.88
2017-06-04T00:28:16.351Z,19.88
2017-06-04T00:28:56.936Z,19.86
2017-06-04T00:29:37.526Z,19.86
2017-06-04T00:30:18.126Z,19.99
2017-06-04T00:30:58.715Z,19.86
2017-06-04T00:31:39.399Z,19.89
2017-06-04T00:32:20.022Z,19.91
2017-06-04T00:33:00.639Z,19.91
2017-06-04T00:33:41.303Z,19.85
2017-06-04T00:34:21.986Z,19.88
2017-06-04T00:35:02.574Z,19.92
2017-06-04T00:35:43.233Z,19.85
2017-06-04T00:36:23.836Z,19.82
2017-06-04T00:37:04.418Z,19.73
2017-06-04T00:37:45.012Z,19.73
2017-06-04T00:38:25.611Z,19.77
2017-06-04T00:39:06.210Z,19.74
2017-06-04T00:39:46.816Z,19.77
2017-06-04T00:40:27.398Z,19.73
2017-06-04T00:41:07.989Z,19.79
2017-06-04T00:41:48.578Z,19.66
2017-06-04T00:42:29.163Z,19.73
2017-06-04T00:43:09.766Z,19.73
2017-06-04T00:43:50.354Z,19.71
2017-06-04T00:44:30.947Z,19.76
2017-06-04T00:45:11.536Z,19.74
2017-06-04T00:45:52.121Z,19.74
2017-06-04T00:46:32.716Z,19.7
2017-06-04T00:47:19.853Z,19.62
2017-06-04T00:48:00.446Z,19.63
2017-06-04T00:48:41.044Z,19.64
2017-06-04T00:49:21.660Z,19.73
2017-06-04T00:50:02.303Z,19.67
2017-06-04T00:50:42.881Z,19.64
2017-06-04T00:51:23.468Z,19.69
2017-06-04T00:52:04.046Z,19.64
2017-06-04T00:52:44.628Z,19.67
2017-06-04T00:53:25.219Z,19.58
2017-06-04T00:54:05.799Z,19.56
2017-06-04T00:54:46.397Z,19.66
2017-06-04T00:55:26.979Z,19.62
2017-06-04T00:56:07.569Z,19.59
2017-06-04T00:56:48.147Z,19.66
2017-06-04T00:57:28.757Z,19.55
2017-06-04T00:58:09.334Z,19.59
2017-06-04T00:58:49.923Z,19.55
2017-06-04T00:59:30.494Z,19.66
2017-06-04T01:00:11.087Z,19.52
2017-06-04T01:00:51.681Z,19.63
2017-06-04T01:01:32.269Z,19.56
2017-06-04T01:02:12.857Z,19.63
2017-06-04T01:02:53.451Z,19.58
2017-06-04T01:03:34.046Z,19.58
2017-06-04T01:04:14.641Z,19.58
2017-06-04T01:04:55.229Z,19.62
2017-06-04T01:05:35.797Z,19.66
2017-06-04T01:06:16.398Z,19.54
2017-06-04T01:06:56.990Z,19.69
2017-06-04T01:07:37.571Z,19.52
2017-06-04T01:08:18.162Z,19.63
2017-06-04T01:08:58.776Z,19.62
2017-06-04T01:09:39.348Z,19.64
2017-06-04T01:10:19.939Z,19.54
2017-06-04T01:11:00.529Z,19.52
2017-06-04T01:11:41.119Z,19.58
2017-06-04T01:12:21.712Z,19.52
2017-06-04T01:13:02.296Z,19.56
2017-06-04T01:13:42.872Z,19.54
2017-06-04T01:14:23.479Z,19.58
2017-06-04T01:15:04.046Z,19.52
2017-06-04T01:15:44.634Z,19.54
2017-06-04T01:16:25.217Z,19.55
2017-06-04T01:17:05.798Z,19.58
2017-06-04T01:17:46.390Z,19.62
2017-06-04T01:18:26.988Z,19.58
2017-06-04T01:19:07.579Z,19.54
2017-06-04T01:19:48.166Z,19.51
2017-06-04T01:20:28.757Z,19.47
2017-06-04T01:21:09.367Z,19.55
2017-06-04T01:21:49.943Z,19.54
2017-06-04T01:22:30.524Z,19.56
2017-06-04T01:23:11.109Z,19.52
2017-06-04T01:23:51.691Z,19.51
2017-06-04T01:24:32.285Z,19.51
2017-06-04T01:25:12.896Z,19.52
2017-06-04T01:25:53.511Z,19.48
2017-06-04T01:26:34.086Z,19.55
2017-06-04T01:27:14.692Z,19.48
2017-06-04T01:27:55.273Z,19.51
2017-06-04T01:28:35.860Z,19.54
2017-06-04T01:29:16.452Z,19.48
2017-06-04T01:29:57.042Z,19.62
2017-06-04T01:30:37.626Z,19.52
2017-06-04T01:31:18.208Z,19.55
2017-06-04T01:31:58.801Z,19.52
2017-06-04T01:32:39.382Z,19.56
2017-06-04T01:33:19.992Z,19.54
2017-06-04T01:34:00.583Z,19.55
2017-06-04T01:34:41.171Z,19.54
2017-06-04T01:35:21.760Z,19.47
2017-06-04T01:36:02.367Z,19.58
2017-06-04T01:36:42.949Z,19.47
2017-06-04T01:37:23.538Z,19.51
2017-06-04T01:38:04.117Z,19.41
2017-06-04T01:38:44.693Z,19.55
2017-06-04T01:39:25.285Z,19.49
2017-06-04T01:40:05.876Z,19.52
2017-06-04T01:40:46.454Z,19.54
2017-06-04T01:41:27.031Z,19.48
2017-06-04T01:42:07.631Z,19.49
2017-06-04T01:42:48.203Z,19.48
2017-06-04T01:43:28.804Z,19.44
2017-06-04T01:44:09.391Z,19.45
2017-06-04T01:44:49.966Z,19.49
2017-06-04T01:45:30.558Z,19.48
2017-06-04T01:46:11.155Z,19.49
2017-06-04T01:46:51.750Z,19.4
2017-06-04T01:47:32.347Z,19.37
2017-06-04T01:48:12.933Z,19.47
2017-06-04T01:48:53.596Z,19.51
2017-06-04T01:49:34.184Z,19.48
2017-06-04T01:50:14.805Z,19.44
2017-06-04T01:50:55.391Z,19.48
2017-06-04T01:51:35.994Z,19.45
2017-06-04T01:52:16.574Z,19.49
2017-06-04T01:52:57.168Z,19.44
2017-06-04T01:53:37.761Z,19.41
2017-06-04T01:54:18.342Z,19.47
2017-06-04T01:54:58.929Z,19.44
2017-06-04T01:55:39.514Z,19.48
2017-06-04T01:56:20.101Z,19.4
2017-06-04T01:57:00.693Z,19.4
2017-06-04T01:57:41.292Z,19.49
2017-06-04T01:58:21.880Z,19.49
2017-06-04T01:59:02.464Z,19.41
2017-06-04T01:59:43.090Z,19.4
2017-06-04T02:00:23.718Z,19.48
2017-06-04T02:01:04.302Z,19.49
2017-06-04T02:01:44.885Z,19.48
2017-06-04T02:02:25.490Z,19.49
2017-06-04T02:03:06.077Z,19.39
2017-06-04T02:03:46.679Z,19.4
2017-06-04T02:04:27.255Z,19.48
2017-06-04T02:05:07.878Z,19.47
2017-06-04T02:05:48.487Z,19.41
2017-06-04T02:06:29.079Z,19.49
2017-06-04T02:07:09.706Z,19.48
2017-06-04T02:07:50.318Z,19.44
2017-06-04T02:08:30.902Z,19.4
2017-06-04T02:09:11.479Z,19.54
2017-06-04T02:09:52.061Z,19.49
2017-06-04T02:10:32.658Z,19.49
2017-06-04T02:11:13.248Z,19.41
2017-06-04T02:11:53.870Z,19.4
2017-06-04T02:12:34.459Z,19.47
2017-06-04T02:13:15.055Z,19.49
2017-06-04T02:13:55.648Z,19.49
2017-06-04T02:14:36.230Z,19.49
2017-06-04T02:15:16.812Z,19.49
2017-06-04T02:15:57.410Z,19.51
2017-06-04T02:16:38.013Z,19.41
2017-06-04T02:17:18.641Z,19.49
2017-06-04T02:17:59.231Z,19.51
2017-06-04T02:18:39.814Z,19.4
2017-06-04T02:19:20.445Z,19.41
2017-06-04T02:20:01.028Z,19.49
2017-06-04T02:20:41.610Z,19.4
2017-06-04T02:21:22.196Z,19.37
2017-06-04T02:22:02.783Z,19.48
2017-06-04T02:22:43.375Z,19.41
2017-06-04T02:23:23.973Z,19.44
2017-06-04T02:24:04.560Z,19.39
2017-06-04T02:24:45.152Z,19.4
2017-06-04T02:25:25.730Z,19.4
2017-06-04T02:26:06.310Z,19.4
2017-06-04T02:26:46.896Z,19.4
2017-06-04T02:27:27.500Z,19.41
2017-06-04T02:28:08.110Z,19.37
2017-06-04T02:28:48.700Z,19.39
2017-06-04T02:29:29.296Z,19.39
2017-06-04T02:30:09.881Z,19.39
2017-06-04T02:30:50.479Z,19.31
2017-06-04T02:31:31.080Z,19.39
2017-06-04T02:32:11.677Z,19.4
2017-06-04T02:32:52.275Z,19.39
2017-06-04T02:33:32.870Z,19.34
2017-06-04T02:34:13.513Z,19.37
2017-06-04T02:34:54.095Z,19.33
2017-06-04T02:35:34.687Z,19.4
2017-06-04T02:36:15.290Z,19.29
2017-06-04T02:36:55.873Z,19.33
2017-06-04T02:37:36.466Z,19.36
2017-06-04T02:38:17.051Z,19.36
2017-06-04T02:38:57.649Z,19.27
2017-06-04T02:39:38.231Z,19.26
2017-06-04T02:40:18.838Z,19.34
2017-06-04T02:40:59.433Z,19.26
2017-06-04T02:41:40.017Z,19.24
2017-06-04T02:42:20.600Z,19.31
2017-06-04T02:43:01.192Z,19.27
2017-06-04T02:43:41.794Z,19.31
2017-06-04T02:44:22.381Z,19.29
2017-06-04T02:45:02.976Z,19.31
2017-06-04T02:45:43.561Z,19.27
2017-06-04T02:46:24.154Z,19.34
2017-06-04T02:47:04.740Z,19.27
2017-06-04T02:47:45.374Z,19.27
2017-06-04T02:48:25.958Z,19.3
2017-06-04T02:49:06.542Z,19.24
2017-06-04T02:49:47.143Z,19.22
2017-06-04T02:50:27.742Z,19.19
2017-06-04T02:51:08.331Z,19.31
2017-06-04T02:51:48.923Z,19.27
2017-06-04T02:52:29.648Z,19.24
2017-06-04T02:53:10.247Z,19.26
2017-06-04T02:53:50.856Z,19.19
2017-06-04T02:54:31.450Z,19.27
2017-06-04T02:55:12.030Z,19.31
2017-06-04T02:55:52.622Z,19.24
2017-06-04T02:56:33.191Z,19.26
2017-06-04T02:57:13.780Z,19.34
2017-06-04T02:57:54.371Z,19.24
2017-06-04T02:58:34.965Z,19.18
2017-06-04T02:59:15.556Z,19.16
2017-06-04T02:59:56.172Z,19.16
2017-06-04T03:00:36.806Z,19.18
2017-06-04T03:01:17.399Z,19.26
2017-06-04T03:01:57.978Z,19.26
2017-06-04T03:02:38.574Z,19.27
2017-06-04T03:03:19.186Z,19.18
2017-06-04T03:03:59.799Z,19.22
2017-06-04T03:04:40.388Z,19.29
2017-06-04T03:05:20.974Z,19.26
2017-06-04T03:06:01.578Z,19.22
2017-06-04T03:06:42.167Z,19.27
2017-06-04T03:07:22.790Z,19.19
2017-06-04T03:08:03.406Z,19.22
2017-06-04T03:08:43.975Z,19.22
2017-06-04T03:09:24.598Z,19.21
2017-06-04T03:10:05.204Z,19.27
2017-06-04T03:10:45.786Z,19.22
2017-06-04T03:11:26.375Z,19.26
2017-06-04T03:12:06.949Z,19.26
2017-06-04T03:12:47.554Z,19.26
2017-06-04T03:13:28.156Z,19.26
2017-06-04T03:14:08.926Z,19.27
2017-06-04T03:14:49.517Z,19.26
2017-06-04T03:15:30.117Z,19.36
2017-06-04T03:16:10.712Z,19.26
2017-06-04T03:16:51.297Z,19.29
2017-06-04T03:17:31.882Z,19.33
2017-06-04T03:18:12.563Z,19.27
2017-06-04T03:18:53.202Z,19.26
2017-06-04T03:19:33.800Z,19.33
2017-06-04T03:20:14.390Z,19.31
2017-06-04T03:20:54.998Z,19.3
2017-06-04T03:21:35.596Z,19.31
2017-06-04T03:22:16.175Z,19.27
2017-06-04T03:22:56.763Z,19.27
2017-06-04T03:23:37.343Z,19.31
2017-06-04T03:24:17.947Z,19.27
2017-06-04T03:24:58.521Z,19.31
2017-06-04T03:25:39.102Z,19.31
2017-06-04T03:26:19.694Z,19.33
2017-06-04T03:27:00.278Z,19.34
2017-06-04T03:27:40.862Z,19.31
2017-06-04T03:28:21.439Z,19.36
2017-06-04T03:29:02.052Z,19.31
2017-06-04T03:29:42.647Z,19.36
2017-06-04T03:30:23.231Z,19.33
2017-06-04T03:31:03.830Z,19.31
2017-06-04T03:31:44.527Z,19.33
2017-06-04T03:32:25.107Z,19.36
2017-06-04T03:33:05.701Z,19.31
2017-06-04T03:33:46.293Z,19.34
2017-06-04T03:34:26.878Z,19.18
2017-06-04T03:35:07.465Z,19.36
2017-06-04T03:35:48.054Z,19.39
2017-06-04T03:36:28.646Z,19.24
2017-06-04T03:37:09.231Z,19.29
2017-06-04T03:37:49.840Z,19.34
2017-06-04T03:38:30.441Z,19.34
2017-06-04T03:39:11.059Z,19.31
2017-06-04T03:39:51.682Z,19.3
2017-06-04T03:40:32.277Z,19.33
2017-06-04T03:41:12.872Z,19.36
2017-06-04T03:41:53.470Z,19.29
2017-06-04T03:42:34.083Z,19.27
2017-06-04T03:43:14.704Z,19.29
2017-06-04T03:43:55.301Z,19.3
2017-06-04T03:44:35.873Z,19.37
2017-06-04T03:45:16.521Z,19.33
2017-06-04T03:45:57.103Z,19.37
2017-06-04T03:46:37.690Z,19.36
2017-06-04T03:47:18.409Z,19.41
2017-06-04T03:47:59.017Z,19.34
2017-06-04T03:48:40.120Z,19.41
2017-06-04T03:49:22.463Z,19.31
2017-06-04T03:50:03.067Z,19.29
2017-06-04T03:50:46.567Z,19.37
2017-06-04T03:51:28.300Z,19.3
2017-06-04T03:52:12.071Z,19.36
2017-06-04T03:52:55.906Z,19.33
2017-06-04T03:53:39.561Z,19.29
2017-06-04T03:54:48.647Z,19.36
2017-06-04T03:55:29.238Z,19.34
2017-06-04T03:56:09.822Z,19.33
2017-06-04T03:56:50.434Z,19.37
2017-06-04T03:57:31.028Z,19.26
2017-06-04T03:58:11.623Z,19.36
2017-06-04T03:58:52.343Z,19.26
2017-06-04T03:59:32.887Z,19.27
2017-06-04T04:00:13.482Z,19.31
2017-06-04T04:00:54.064Z,19.24
2017-06-04T04:01:34.673Z,19.29
2017-06-04T04:02:15.257Z,19.3
2017-06-04T04:02:55.844Z,19.33
2017-06-04T04:03:36.427Z,19.37
2017-06-04T04:04:17.019Z,19.29
2017-06-04T04:04:57.684Z,19.3
2017-06-04T04:05:38.293Z,19.29
2017-06-04T04:06:18.889Z,19.33
2017-06-04T04:06:59.493Z,19.3
2017-06-04T04:07:40.102Z,19.34
2017-06-04T04:08:20.722Z,19.26
2017-06-04T04:09:01.314Z,19.31
2017-06-04T04:09:41.908Z,19.34
2017-06-04T04:10:22.491Z,19.3
2017-06-04T04:11:03.089Z,19.34
2017-06-04T04:11:43.681Z,19.3
2017-06-04T04:12:24.283Z,19.37
2017-06-04T04:13:04.930Z,19.37
2017-06-04T04:13:45.537Z,19.3
2017-06-04T04:14:26.115Z,19.4
2017-06-04T04:15:06.743Z,19.41
2017-06-04T04:15:47.340Z,19.33
2017-06-04T04:16:27.946Z,19.41
2017-06-04T04:17:08.540Z,19.39
2017-06-04T04:17:49.130Z,19.3
2017-06-04T04:18:29.788Z,19.39
2017-06-04T04:19:10.431Z,19.31
2017-06-04T04:19:51.026Z,19.37
2017-06-04T04:20:31.621Z,19.41
2017-06-04T04:21:12.252Z,19.39
2017-06-04T04:21:52.900Z,19.4
2017-06-04T04:22:33.488Z,19.31
2017-06-04T04:23:14.080Z,19.39
2017-06-04T04:23:54.696Z,19.41
2017-06-04T04:24:35.295Z,19.36
2017-06-04T04:25:15.895Z,19.36
2017-06-04T04:25:56.485Z,19.36
2017-06-04T04:26:37.078Z,19.47
2017-06-04T04:27:17.676Z,19.48
2017-06-04T04:27:58.272Z,19.41
2017-06-04T04:28:38.866Z,19.47
2017-06-04T04:29:19.456Z,19.45
2017-06-04T04:30:00.043Z,19.49
2017-06-04T04:30:40.643Z,19.48
2017-06-04T04:31:21.245Z,19.47
2017-06-04T04:32:01.825Z,19.49
2017-06-04T04:32:42.412Z,19.48
2017-06-04T04:33:22.991Z,19.44
2017-06-04T04:34:03.597Z,19.37
2017-06-04T04:34:44.293Z,19.4
2017-06-04T04:35:24.953Z,19.45
2017-06-04T04:36:05.544Z,19.45
2017-06-04T04:36:46.156Z,19.54
2017-06-04T04:37:26.757Z,19.44
2017-06-04T04:38:07.343Z,19.49
2017-06-04T04:38:47.929Z,19.41
2017-06-04T04:39:28.543Z,19.4
2017-06-04T04:40:09.154Z,19.37
2017-06-04T04:40:49.740Z,19.39
2017-06-04T04:41:30.337Z,19.45
2017-06-04T04:42:10.937Z,19.34
2017-06-04T04:42:51.560Z,19.39
2017-06-04T04:43:32.152Z,19.41
2017-06-04T04:44:12.753Z,19.34
2017-06-04T04:44:53.345Z,19.4
2017-06-04T04:45:33.940Z,19.44
2017-06-04T04:46:14.520Z,19.47
2017-06-04T04:46:55.113Z,19.41
2017-06-04T04:47:35.724Z,19.49
2017-06-04T04:48:16.319Z,19.4
2017-06-04T04:48:56.901Z,19.44
2017-06-04T04:49:37.488Z,19.36
2017-06-04T04:50:18.081Z,19.51
2017-06-04T04:50:58.707Z,19.4
2017-06-04T04:51:39.303Z,19.39
2017-06-04T04:52:19.898Z,19.37
2017-06-04T04:53:00.526Z,19.4
2017-06-04T04:53:41.110Z,19.4
2017-06-04T04:54:21.708Z,19.36
2017-06-04T04:55:02.306Z,19.4
2017-06-04T04:55:42.905Z,19.36
2017-06-04T04:56:23.499Z,19.39
2017-06-04T04:57:04.079Z,19.49
2017-06-04T04:57:44.660Z,19.45
2017-06-04T04:58:25.274Z,19.47
2017-06-04T04:59:05.872Z,19.51
2017-06-04T04:59:46.536Z,19.47
2017-06-04T05:00:27.145Z,19.45
2017-06-04T05:01:07.796Z,19.51
2017-06-04T05:01:48.583Z,19.47
2017-06-04T05:02:29.235Z,19.47
2017-06-04T05:03:09.838Z,19.51
2017-06-04T05:03:50.434Z,19.47
2017-06-04T05:04:31.015Z,19.41
2017-06-04T05:05:11.770Z,19.49
2017-06-04T05:05:52.420Z,19.45
2017-06-04T05:06:33.104Z,19.44
2017-06-04T05:07:13.753Z,19.44
2017-06-04T05:07:54.498Z,19.51
2017-06-04T05:08:35.087Z,19.45
2017-06-04T05:09:15.694Z,19.45
2017-06-04T05:09:56.297Z,19.49
2017-06-04T05:10:36.913Z,19.48
2017-06-04T05:11:17.517Z,19.45
2017-06-04T05:11:58.161Z,19.54
2017-06-04T05:12:38.775Z,19.48
2017-06-04T05:13:19.453Z,19.54
2017-06-04T05:14:00.061Z,19.47
2017-06-04T05:14:40.666Z,19.49
2017-06-04T05:15:21.285Z,19.54
2017-06-04T05:16:01.957Z,19.48
2017-06-04T05:16:42.621Z,19.41
2017-06-04T05:17:23.209Z,19.51
2017-06-04T05:18:03.795Z,19.51
2017-06-04T05:18:44.383Z,19.45
2017-06-04T05:19:25.001Z,19.41
2017-06-04T05:20:05.583Z,19.44
2017-06-04T05:20:46.181Z,19.51
2017-06-04T05:21:26.777Z,19.52
2017-06-04T05:22:07.381Z,19.48
2017-06-04T05:22:47.976Z,19.48
2017-06-04T05:23:28.570Z,19.52
2017-06-04T05:24:09.202Z,19.48
2017-06-04T05:24:49.791Z,19.49
2017-06-04T05:25:30.373Z,19.47
2017-06-04T05:26:10.975Z,19.51
2017-06-04T05:26:51.571Z,19.47
2017-06-04T05:27:32.174Z,19.54
2017-06-04T05:28:12.844Z,19.59
2017-06-04T05:28:53.423Z,19.54
2017-06-04T05:29:34.010Z,19.49
2017-06-04T05:30:14.618Z,19.64
2017-06-04T05:30:55.329Z,19.54
2017-06-04T05:31:35.931Z,19.59
2017-06-04T05:32:16.583Z,19.52
2017-06-04T05:32:57.172Z,19.55
2017-06-04T05:33:37.793Z,19.62
2017-06-04T05:34:18.363Z,19.56
2017-06-04T05:34:59.022Z,19.51
2017-06-04T05:35:39.603Z,19.49
2017-06-04T05:36:20.191Z,19.63
2017-06-04T05:37:00.779Z,19.54
2017-06-04T05:37:41.359Z,19.52
2017-06-04T05:38:21.961Z,19.55
2017-06-04T05:39:02.557Z,19.52
2017-06-04T05:39:43.147Z,19.62
2017-06-04T05:40:23.736Z,19.51
2017-06-04T05:41:04.349Z,19.54
2017-06-04T05:41:44.944Z,19.62
2017-06-04T05:42:25.568Z,19.51
2017-06-04T05:43:06.170Z,19.63
2017-06-04T05:43:46.773Z,19.52
2017-06-04T05:44:27.375Z,19.52
2017-06-04T05:45:07.956Z,19.52
2017-06-04T05:45:48.549Z,19.52
2017-06-04T05:46:29.143Z,19.54
2017-06-04T05:47:09.735Z,19.55
2017-06-04T05:47:50.398Z,19.58
2017-06-04T05:48:31.000Z,19.54
2017-06-04T05:49:11.613Z,19.63
2017-06-04T05:49:52.209Z,19.54
2017-06-04T05:50:32.809Z,19.52
2017-06-04T05:51:13.406Z,19.58
2017-06-04T05:51:54.013Z,19.58
2017-06-04T05:52:34.615Z,19.64
2017-06-04T05:53:15.210Z,19.63
2017-06-04T05:53:55.862Z,19.58
2017-06-04T05:54:36.491Z,19.59
2017-06-04T05:55:17.116Z,19.64
2017-06-04T05:55:57.736Z,19.59
2017-06-04T05:56:38.331Z,19.63
2017-06-04T05:57:19.012Z,19.55
2017-06-04T05:57:59.608Z,19.51
2017-06-04T05:58:40.215Z,19.54
2017-06-04T05:59:20.810Z,19.58
2017-06-04T06:00:01.517Z,19.58
2017-06-04T06:00:42.115Z,19.59
2017-06-04T06:01:22.714Z,19.59
2017-06-04T06:02:03.306Z,19.56
2017-06-04T06:02:43.924Z,19.54
2017-06-04T06:03:26.698Z,19.63
2017-06-04T06:04:07.311Z,19.67
2017-06-04T06:04:47.936Z,19.64
2017-06-04T06:05:28.637Z,19.64
2017-06-04T06:06:09.389Z,19.55
2017-06-04T06:06:49.978Z,19.63
2017-06-04T06:07:30.560Z,19.56
2017-06-04T06:08:11.175Z,19.64
2017-06-04T06:09:01.942Z,19.66
2017-06-04T06:09:42.533Z,19.64
2017-06-04T06:10:23.133Z,19.67
2017-06-04T06:11:05.722Z,19.69
2017-06-04T06:11:46.726Z,19.69
2017-06-04T06:12:27.412Z,19.63
2017-06-04T06:13:09.687Z,19.63
2017-06-04T06:13:50.273Z,19.69
2017-06-04T06:14:30.860Z,19.62
2017-06-04T06:15:12.008Z,19.63
2017-06-04T06:15:52.626Z,19.59
2017-06-04T06:16:33.552Z,19.55
2017-06-04T06:17:14.149Z,19.63
2017-06-04T06:17:54.763Z,19.67
2017-06-04T06:18:35.366Z,19.64
2017-06-04T06:19:16.027Z,19.63
2017-06-04T06:19:57.480Z,19.63
2017-06-04T06:20:38.101Z,19.66
2017-06-04T06:21:18.719Z,19.64
2017-06-04T06:21:59.824Z,19.7
2017-06-04T06:22:40.463Z,19.67
2017-06-04T06:23:21.093Z,19.67
2017-06-04T06:24:01.705Z,19.62
2017-06-04T06:24:47.645Z,19.64
2017-06-04T06:25:56.877Z,19.67
2017-06-04T06:29:14.906Z,19.66
2017-06-04T06:29:55.497Z,19.77
2017-06-04T06:30:36.095Z,19.71
2017-06-04T06:31:16.690Z,19.63
2017-06-04T06:31:57.318Z,19.7
2017-06-04T06:32:37.976Z,19.74
2017-06-04T06:33:18.564Z,19.74
2017-06-04T06:33:59.173Z,19.74
2017-06-04T06:34:39.769Z,19.74
2017-06-04T06:35:20.355Z,19.69
2017-06-04T06:36:00.938Z,19.79
2017-06-04T06:36:41.555Z,19.77
2017-06-04T06:37:22.140Z,19.69
2017-06-04T06:38:02.813Z,19.71
2017-06-04T06:38:43.395Z,19.64
2017-06-04T06:39:24.001Z,19.74
2017-06-04T06:40:04.587Z,19.64
2017-06-04T06:40:45.190Z,19.73
2017-06-04T06:41:25.770Z,19.66
2017-06-04T06:42:06.373Z,19.69
2017-06-04T06:42:46.961Z,19.76
2017-06-04T06:43:27.599Z,19.81
2017-06-04T06:44:08.267Z,19.79
2017-06-04T06:44:48.877Z,19.94
2017-06-04T06:45:29.492Z,19.88
2017-06-04T06:46:10.077Z,19.86
2017-06-04T06:46:51.234Z,19.94
2017-06-04T06:47:31.817Z,19.95
2017-06-04T06:48:12.438Z,19.99
2017-06-04T06:48:53.039Z,20.03
2017-06-04T06:49:33.609Z,20.02
2017-06-04T06:50:14.196Z,20.13
2017-06-04T06:50:54.894Z,20.19
2017-06-04T06:51:35.488Z,20.24
2017-06-04T06:52:16.074Z,20.18
2017-06-04T06:52:56.664Z,20.19
2017-06-04T06:53:37.446Z,20.14
2017-06-04T06:54:18.058Z,20.18
2017-06-04T06:54:58.649Z,20.31
2017-06-04T06:55:39.862Z,20.29
2017-06-04T06:56:34.587Z,20.29
2017-06-04T06:57:15.333Z,20.29
2017-06-04T06:57:55.925Z,20.22
2017-06-04T06:58:36.548Z,20.29
2017-06-04T06:59:17.143Z,20.28
2017-06-04T06:59:57.776Z,20.39
2017-06-04T07:00:38.431Z,20.32
2017-06-04T07:01:19.028Z,20.24
2017-06-04T07:02:00.217Z,20.24
2017-06-04T07:02:48.703Z,20.26
2017-06-04T07:03:42.874Z,20.34
2017-06-04T07:04:23.779Z,20.26
2017-06-04T07:05:05.892Z,20.28
2017-06-04T07:05:47.742Z,20.32
2017-06-04T07:06:34.284Z,20.37
2017-06-04T07:07:15.302Z,20.39
2017-06-04T07:07:57.275Z,20.34
2017-06-04T07:08:39.178Z,20.34
2017-06-04T07:09:31.596Z,20.32
2017-06-04T07:10:15.190Z,20.32
2017-06-04T07:10:55.842Z,20.36
2017-06-04T07:11:37.828Z,20.41
2017-06-04T07:12:18.490Z,20.36
2017-06-04T07:13:00.357Z,20.29
2017-06-04T07:13:41.024Z,20.36
2017-06-04T07:14:21.629Z,20.22
2017-06-04T07:15:02.236Z,20.26
2017-06-04T07:15:42.853Z,20.34
2017-06-04T07:16:23.484Z,20.25
2017-06-04T07:17:04.328Z,20.16
2017-06-04T07:17:44.963Z,20.28
2017-06-04T07:18:25.577Z,20.31
2017-06-04T07:19:06.257Z,20.28
2017-06-04T07:19:46.908Z,20.39
2017-06-04T07:20:27.566Z,20.39
2017-06-04T07:21:08.240Z,20.31
2017-06-04T07:21:48.890Z,20.29
2017-06-04T07:22:29.501Z,20.26
2017-06-04T07:23:10.808Z,20.16
2017-06-04T07:23:51.437Z,20.1
2017-06-04T07:24:32.035Z,20.13
2017-06-04T07:25:12.658Z,20.26
2017-06-04T07:25:53.312Z,20.24
2017-06-04T07:26:33.989Z,20.34
2017-06-04T07:27:14.598Z,20.34
2017-06-04T07:27:55.207Z,20.41
2017-06-04T07:28:35.924Z,20.4
2017-06-04T07:29:16.599Z,20.29
2017-06-04T07:29:57.330Z,20.34
2017-06-04T07:30:38.134Z,20.22
2017-06-04T07:31:18.892Z,20.25
2017-06-04T07:31:59.739Z,20.29
2017-06-04T07:32:40.593Z,20.14
2017-06-04T07:33:21.206Z,20.13
2017-06-04T07:34:01.818Z,20.22
2017-06-04T07:34:42.469Z,20.14
2017-06-04T07:35:23.117Z,20.11
2017-06-04T07:36:03.756Z,20.13
2017-06-04T07:36:44.350Z,20.21
2017-06-04T07:37:24.960Z,20.26
2017-06-04T07:38:05.548Z,20.25
2017-06-04T07:38:46.142Z,20.32
2017-06-04T07:39:26.737Z,20.29
2017-06-04T07:40:18.103Z,20.28
2017-06-04T07:41:18.473Z,20.32
2017-06-04T07:42:07.546Z,20.32
2017-06-04T07:42:50.695Z,20.32
2017-06-04T07:43:43.823Z,20.21
2017-06-04T07:44:26.245Z,20.16
2017-06-04T07:45:08.878Z,20.22
2017-06-04T07:46:03.447Z,20.1
2017-06-04T07:47:01.165Z,20.1
2017-06-04T07:48:09.525Z,20.11
2017-06-04T07:48:55.517Z,20.09
2017-06-04T07:49:36.112Z,20.06
2017-06-04T07:50:16.725Z,20.07
2017-06-04T07:50:57.311Z,20.13
2017-06-04T07:51:37.994Z,20.03
2017-06-04T07:52:18.741Z,20.06
2017-06-04T07:52:59.759Z,19.96
2017-06-04T07:53:40.332Z,20.04
2017-06-04T07:54:20.951Z,19.94
2017-06-04T07:55:01.554Z,20.04
2017-06-04T07:55:42.132Z,19.94
2017-06-04T07:56:22.710Z,19.94
2017-06-04T07:57:03.330Z,19.86
2017-06-04T07:57:43.916Z,19.86
2017-06-04T07:58:24.532Z,19.92
2017-06-04T07:59:05.121Z,19.82
2017-06-04T07:59:45.708Z,19.92
2017-06-04T08:00:26.318Z,19.71
2017-06-04T08:01:06.905Z,19.74
2017-06-04T08:01:47.492Z,19.77
2017-06-04T08:02:28.082Z,19.71
2017-06-04T08:03:08.667Z,19.76
2017-06-04T08:03:49.266Z,19.74
2017-06-04T08:04:29.861Z,19.63
2017-06-04T08:05:10.458Z,19.62
2017-06-04T08:05:51.080Z,19.67
2017-06-04T08:06:31.681Z,19.62
2017-06-04T08:07:12.269Z,19.49
2017-06-04T08:07:52.862Z,19.54
2017-06-04T08:08:33.450Z,19.49
2017-06-04T08:09:14.042Z,19.48
2017-06-04T08:09:54.702Z,19.34
2017-06-04T08:10:35.465Z,19.36
2017-06-04T08:11:16.057Z,19.37
2017-06-04T08:11:56.648Z,19.3
2017-06-04T08:12:37.237Z,19.29
2017-06-04T08:13:17.816Z,19.36
2017-06-04T08:13:58.403Z,19.34
2017-06-04T08:14:39.003Z,19.34
2017-06-04T08:15:19.611Z,19.29
2017-06-04T08:16:00.216Z,19.24
2017-06-04T08:16:40.837Z,19.31
2017-06-04T08:17:21.421Z,19.27
2017-06-04T08:18:02.008Z,19.22
2017-06-04T08:18:42.650Z,19.27
2017-06-04T08:19:23.239Z,19.15
2017-06-04T08:20:03.948Z,19.11
2017-06-04T08:20:44.552Z,19.24
2017-06-04T08:21:25.229Z,19.19
2017-06-04T08:22:05.762Z,19.26
2017-06-04T08:22:46.344Z,19.29
2017-06-04T08:23:26.933Z,19.26
2017-06-04T08:24:07.516Z,19.29
2017-06-04T08:24:48.108Z,19.27
2017-06-04T08:25:28.698Z,19.27
2017-06-04T08:26:09.348Z,19.29
2017-06-04T08:26:49.934Z,19.34
2017-06-04T08:27:30.539Z,19.3
2017-06-04T08:28:11.121Z,19.26
2017-06-04T08:28:51.706Z,19.22
2017-06-04T08:29:32.290Z,19.24
2017-06-04T08:30:12.880Z,19.27
2017-06-04T08:30:53.466Z,19.24
2017-06-04T08:31:34.052Z,19.36
2017-06-04T08:32:14.630Z,19.34
2017-06-04T08:32:55.213Z,19.37
2017-06-04T08:33:35.802Z,19.3
2017-06-04T08:34:16.406Z,19.37
2017-06-04T08:34:57.019Z,19.39
2017-06-04T08:35:37.594Z,19.33
2017-06-04T08:36:18.205Z,19.39
2017-06-04T08:36:58.796Z,19.36
2017-06-04T08:37:39.376Z,19.36
2017-06-04T08:38:19.975Z,19.31
2017-06-04T08:39:00.553Z,19.34
2017-06-04T08:39:41.141Z,19.39
2017-06-04T08:40:21.728Z,19.3
2017-06-04T08:41:02.309Z,19.36
2017-06-04T08:41:42.911Z,19.31
2017-06-04T08:42:23.498Z,19.26
2017-06-04T08:43:04.092Z,19.3
2017-06-04T08:43:44.670Z,19.22
2017-06-04T08:44:25.285Z,19.18
2017-06-04T08:45:05.872Z,19.24
2017-06-04T08:45:46.458Z,19.18
2017-06-04T08:46:27.040Z,19.11
2017-06-04T08:47:07.617Z,19.07
2017-06-04T08:47:48.231Z,19.12
2017-06-04T08:48:28.825Z,19.09
2017-06-04T08:49:09.416Z,19.16
2017-06-04T08:49:50.010Z,19.16
2017-06-04T08:50:30.701Z,19.04
2017-06-04T08:51:11.454Z,19.16
2017-06-04T08:51:52.033Z,19.18